sensor_id;sensor_type;location;lat;lon;timestamp;P1;durP1;ratioP1;P2;durP2;ratioP2
5147;SDS011;2592;48.140;7.614;2024-01-27T00:00:33;7.40;;;4.37;;
5147;SDS011;2592;48.140;7.614;2024-01-27T00:03:00;12.23;;;5.80;;
5147;SDS011;2592;48.140;7.614;2024-01-27T00:05:27;11.90;;;6.80;;
5147;SDS011;2592;48.140;7.614;2024-01-27T00:07:55;18.20;;;9.77;;
5147;SDS011;2592;48.140;7.614;2024-01-27T00:10:21;17.30;;;8.50;;
5147;SDS011;2592;48.140;7.614;2024-01-27T00:12:48;11.77;;;5.90;;
5147;SDS011;2592;48.140;7.614;2024-01-27T00:15:14;11.60;;;6.70;;
5147;SDS011;2592;48.140;7.614;2024-01-27T00:17:41;8.90;;;4.70;;
5147;SDS011;2592;48.140;7.614;2024-01-27T00:20:07;8.90;;;5.03;;
5147;SDS011;2592;48.140;7.614;2024-01-27T00:22:34;12.93;;;7.50;;
5147;SDS011;2592;48.140;7.614;2024-01-27T00:25:02;16.40;;;9.47;;
5147;SDS011;2592;48.140;7.614;2024-01-27T00:27:28;17.63;;;10.10;;
5147;SDS011;2592;48.140;7.614;2024-01-27T00:29:55;19.20;;;10.87;;
5147;SDS011;2592;48.140;7.614;2024-01-27T00:32:21;20.90;;;10.07;;
5147;SDS011;2592;48.140;7.614;2024-01-27T00:34:48;15.53;;;8.03;;
5147;SDS011;2592;48.140;7.614;2024-01-27T00:37:14;16.73;;;7.60;;
5147;SDS011;2592;48.140;7.614;2024-01-27T00:39:41;9.57;;;5.57;;
5147;SDS011;2592;48.140;7.614;2024-01-27T00:42:08;7.10;;;4.53;;
5147;SDS011;2592;48.140;7.614;2024-01-27T00:44:35;11.00;;;5.00;;
5147;SDS011;2592;48.140;7.614;2024-01-27T00:47:02;11.83;;;5.37;;
5147;SDS011;2592;48.140;7.614;2024-01-27T00:49:29;10.20;;;5.30;;
5147;SDS011;2592;48.140;7.614;2024-01-27T00:51:55;15.30;;;5.90;;
5147;SDS011;2592;48.140;7.614;2024-01-27T00:54:21;8.67;;;4.73;;
5147;SDS011;2592;48.140;7.614;2024-01-27T00:56:50;11.63;;;5.40;;
5147;SDS011;2592;48.140;7.614;2024-01-27T00:59:18;13.93;;;4.37;;
5147;SDS011;2592;48.140;7.614;2024-01-27T01:01:45;7.70;;;4.00;;
5147;SDS011;2592;48.140;7.614;2024-01-27T01:04:11;6.90;;;4.27;;
5147;SDS011;2592;48.140;7.614;2024-01-27T01:06:38;10.10;;;4.70;;
5147;SDS011;2592;48.140;7.614;2024-01-27T01:09:05;9.87;;;6.00;;
5147;SDS011;2592;48.140;7.614;2024-01-27T01:11:31;12.53;;;6.53;;
5147;SDS011;2592;48.140;7.614;2024-01-27T01:13:58;6.97;;;5.27;;
5147;SDS011;2592;48.140;7.614;2024-01-27T01:16:25;6.70;;;4.43;;
5147;SDS011;2592;48.140;7.614;2024-01-27T01:18:52;9.30;;;5.20;;
5147;SDS011;2592;48.140;7.614;2024-01-27T01:21:18;8.90;;;4.40;;
5147;SDS011;2592;48.140;7.614;2024-01-27T01:23:45;5.10;;;4.23;;
5147;SDS011;2592;48.140;7.614;2024-01-27T01:26:11;5.60;;;4.20;;
5147;SDS011;2592;48.140;7.614;2024-01-27T01:28:38;6.23;;;4.50;;
5147;SDS011;2592;48.140;7.614;2024-01-27T01:31:06;9.60;;;4.67;;
5147;SDS011;2592;48.140;7.614;2024-01-27T01:33:33;8.80;;;4.93;;
5147;SDS011;2592;48.140;7.614;2024-01-27T01:36:00;7.13;;;4.00;;
5147;SDS011;2592;48.140;7.614;2024-01-27T01:38:25;9.37;;;5.10;;
5147;SDS011;2592;48.140;7.614;2024-01-27T01:40:52;5.80;;;4.43;;
5147;SDS011;2592;48.140;7.614;2024-01-27T01:43:18;5.87;;;4.13;;
5147;SDS011;2592;48.140;7.614;2024-01-27T01:45:45;6.83;;;4.80;;
5147;SDS011;2592;48.140;7.614;2024-01-27T01:48:11;4.80;;;3.83;;
5147;SDS011;2592;48.140;7.614;2024-01-27T01:50:39;5.63;;;3.57;;
5147;SDS011;2592;48.140;7.614;2024-01-27T01:53:06;8.33;;;5.07;;
5147;SDS011;2592;48.140;7.614;2024-01-27T01:55:33;9.63;;;5.47;;
5147;SDS011;2592;48.140;7.614;2024-01-27T01:57:59;6.63;;;4.30;;
5147;SDS011;2592;48.140;7.614;2024-01-27T02:00:26;8.30;;;4.47;;
5147;SDS011;2592;48.140;7.614;2024-01-27T02:02:52;7.50;;;4.17;;
5147;SDS011;2592;48.140;7.614;2024-01-27T02:05:19;7.30;;;5.03;;
5147;SDS011;2592;48.140;7.614;2024-01-27T02:07:47;9.10;;;4.90;;
5147;SDS011;2592;48.140;7.614;2024-01-27T02:10:13;5.80;;;4.80;;
5147;SDS011;2592;48.140;7.614;2024-01-27T02:12:40;7.77;;;4.90;;
5147;SDS011;2592;48.140;7.614;2024-01-27T02:15:09;7.73;;;5.40;;
5147;SDS011;2592;48.140;7.614;2024-01-27T02:17:35;6.63;;;5.37;;
5147;SDS011;2592;48.140;7.614;2024-01-27T02:20:02;7.17;;;5.00;;
5147;SDS011;2592;48.140;7.614;2024-01-27T02:22:29;10.00;;;5.67;;
5147;SDS011;2592;48.140;7.614;2024-01-27T02:24:57;6.57;;;5.83;;
5147;SDS011;2592;48.140;7.614;2024-01-27T02:27:23;10.93;;;6.60;;
5147;SDS011;2592;48.140;7.614;2024-01-27T02:29:50;8.17;;;5.90;;
5147;SDS011;2592;48.140;7.614;2024-01-27T02:32:16;8.80;;;5.90;;
5147;SDS011;2592;48.140;7.614;2024-01-27T02:34:42;8.63;;;6.47;;
5147;SDS011;2592;48.140;7.614;2024-01-27T02:37:09;8.23;;;5.63;;
5147;SDS011;2592;48.140;7.614;2024-01-27T02:39:35;8.63;;;5.20;;
5147;SDS011;2592;48.140;7.614;2024-01-27T02:42:04;8.73;;;5.13;;
5147;SDS011;2592;48.140;7.614;2024-01-27T02:44:30;7.53;;;5.27;;
5147;SDS011;2592;48.140;7.614;2024-01-27T02:46:56;9.33;;;4.87;;
5147;SDS011;2592;48.140;7.614;2024-01-27T02:49:23;8.67;;;5.23;;
5147;SDS011;2592;48.140;7.614;2024-01-27T02:51:49;8.23;;;5.47;;
5147;SDS011;2592;48.140;7.614;2024-01-27T02:54:16;7.13;;;4.80;;
5147;SDS011;2592;48.140;7.614;2024-01-27T02:56:42;5.93;;;4.40;;
5147;SDS011;2592;48.140;7.614;2024-01-27T02:59:10;6.77;;;5.40;;
5147;SDS011;2592;48.140;7.614;2024-01-27T03:01:37;7.20;;;5.60;;
5147;SDS011;2592;48.140;7.614;2024-01-27T03:04:04;10.23;;;6.10;;
5147;SDS011;2592;48.140;7.614;2024-01-27T03:06:31;6.80;;;5.00;;
5147;SDS011;2592;48.140;7.614;2024-01-27T03:08:57;8.07;;;5.40;;
5147;SDS011;2592;48.140;7.614;2024-01-27T03:11:23;9.80;;;6.53;;
5147;SDS011;2592;48.140;7.614;2024-01-27T03:13:50;7.13;;;5.30;;
5147;SDS011;2592;48.140;7.614;2024-01-27T03:16:18;9.83;;;5.53;;
5147;SDS011;2592;48.140;7.614;2024-01-27T03:18:45;5.13;;;4.40;;
5147;SDS011;2592;48.140;7.614;2024-01-27T03:21:11;8.43;;;4.67;;
5147;SDS011;2592;48.140;7.614;2024-01-27T03:23:38;6.47;;;4.63;;
5147;SDS011;2592;48.140;7.614;2024-01-27T03:26:04;8.80;;;4.77;;
5147;SDS011;2592;48.140;7.614;2024-01-27T03:28:30;6.73;;;4.03;;
5147;SDS011;2592;48.140;7.614;2024-01-27T03:30:57;5.10;;;3.83;;
5147;SDS011;2592;48.140;7.614;2024-01-27T03:33:26;6.63;;;4.40;;
5147;SDS011;2592;48.140;7.614;2024-01-27T03:35:54;5.23;;;3.73;;
5147;SDS011;2592;48.140;7.614;2024-01-27T03:38:20;8.30;;;5.20;;
5147;SDS011;2592;48.140;7.614;2024-01-27T03:40:47;7.03;;;4.90;;
5147;SDS011;2592;48.140;7.614;2024-01-27T03:43:13;6.93;;;5.63;;
5147;SDS011;2592;48.140;7.614;2024-01-27T03:45:40;7.33;;;5.10;;
5147;SDS011;2592;48.140;7.614;2024-01-27T03:48:07;6.00;;;4.67;;
5147;SDS011;2592;48.140;7.614;2024-01-27T03:50:34;7.97;;;5.47;;
5147;SDS011;2592;48.140;7.614;2024-01-27T03:53:01;7.00;;;5.20;;
5147;SDS011;2592;48.140;7.614;2024-01-27T03:55:27;6.33;;;4.80;;
5147;SDS011;2592;48.140;7.614;2024-01-27T03:57:54;5.83;;;4.53;;
5147;SDS011;2592;48.140;7.614;2024-01-27T04:00:20;6.40;;;4.70;;
5147;SDS011;2592;48.140;7.614;2024-01-27T04:02:47;9.60;;;5.57;;
5147;SDS011;2592;48.140;7.614;2024-01-27T04:05:13;8.83;;;5.53;;
5147;SDS011;2592;48.140;7.614;2024-01-27T04:07:41;22.77;;;13.67;;
5147;SDS011;2592;48.140;7.614;2024-01-27T04:10:08;9.17;;;6.97;;
5147;SDS011;2592;48.140;7.614;2024-01-27T04:12:34;6.90;;;5.17;;
5147;SDS011;2592;48.140;7.614;2024-01-27T04:15:01;6.07;;;4.40;;
5147;SDS011;2592;48.140;7.614;2024-01-27T04:17:27;8.10;;;3.97;;
5147;SDS011;2592;48.140;7.614;2024-01-27T04:19:54;11.80;;;4.63;;
5147;SDS011;2592;48.140;7.614;2024-01-27T04:22:20;11.57;;;4.00;;
5147;SDS011;2592;48.140;7.614;2024-01-27T04:24:48;9.30;;;4.00;;
5147;SDS011;2592;48.140;7.614;2024-01-27T04:27:15;5.53;;;3.37;;
5147;SDS011;2592;48.140;7.614;2024-01-27T04:29:41;7.50;;;3.90;;
5147;SDS011;2592;48.140;7.614;2024-01-27T04:32:08;5.63;;;3.97;;
5147;SDS011;2592;48.140;7.614;2024-01-27T04:34:34;5.97;;;3.97;;
5147;SDS011;2592;48.140;7.614;2024-01-27T04:37:01;4.50;;;3.83;;
5147;SDS011;2592;48.140;7.614;2024-01-27T04:39:27;5.00;;;3.80;;
5147;SDS011;2592;48.140;7.614;2024-01-27T04:41:55;4.30;;;3.57;;
5147;SDS011;2592;48.140;7.614;2024-01-27T04:44:22;7.20;;;4.60;;
5147;SDS011;2592;48.140;7.614;2024-01-27T04:46:48;8.83;;;4.07;;
5147;SDS011;2592;48.140;7.614;2024-01-27T04:49:15;7.53;;;4.70;;
5147;SDS011;2592;48.140;7.614;2024-01-27T04:51:41;6.70;;;4.50;;
5147;SDS011;2592;48.140;7.614;2024-01-27T04:54:08;5.47;;;4.50;;
5147;SDS011;2592;48.140;7.614;2024-01-27T04:56:34;4.40;;;4.00;;
5147;SDS011;2592;48.140;7.614;2024-01-27T04:59:02;7.40;;;4.40;;
5147;SDS011;2592;48.140;7.614;2024-01-27T05:01:28;6.23;;;4.53;;
5147;SDS011;2592;48.140;7.614;2024-01-27T05:03:54;5.30;;;4.20;;
5147;SDS011;2592;48.140;7.614;2024-01-27T05:06:21;5.93;;;4.40;;
5147;SDS011;2592;48.140;7.614;2024-01-27T05:08:47;8.23;;;4.53;;
5147;SDS011;2592;48.140;7.614;2024-01-27T05:11:13;4.90;;;4.13;;
5147;SDS011;2592;48.140;7.614;2024-01-27T05:13:40;9.60;;;4.93;;
5147;SDS011;2592;48.140;7.614;2024-01-27T05:16:08;8.93;;;4.70;;
5147;SDS011;2592;48.140;7.614;2024-01-27T05:18:34;10.53;;;5.27;;
5147;SDS011;2592;48.140;7.614;2024-01-27T05:21:01;5.73;;;4.60;;
5147;SDS011;2592;48.140;7.614;2024-01-27T05:23:27;7.53;;;5.23;;
5147;SDS011;2592;48.140;7.614;2024-01-27T05:25:54;6.70;;;4.70;;
5147;SDS011;2592;48.140;7.614;2024-01-27T05:28:20;6.67;;;5.10;;
5147;SDS011;2592;48.140;7.614;2024-01-27T05:30:46;7.87;;;4.97;;
5147;SDS011;2592;48.140;7.614;2024-01-27T05:33:14;5.73;;;5.13;;
5147;SDS011;2592;48.140;7.614;2024-01-27T05:35:41;13.60;;;9.90;;
5147;SDS011;2592;48.140;7.614;2024-01-27T05:38:08;8.50;;;5.73;;
5147;SDS011;2592;48.140;7.614;2024-01-27T05:40:34;10.87;;;6.73;;
5147;SDS011;2592;48.140;7.614;2024-01-27T05:43:01;5.90;;;5.00;;
5147;SDS011;2592;48.140;7.614;2024-01-27T05:45:27;7.17;;;6.43;;
5147;SDS011;2592;48.140;7.614;2024-01-27T05:47:54;7.53;;;6.03;;
5147;SDS011;2592;48.140;7.614;2024-01-27T05:50:22;8.83;;;6.33;;
5147;SDS011;2592;48.140;7.614;2024-01-27T05:52:48;10.07;;;6.80;;
5147;SDS011;2592;48.140;7.614;2024-01-27T05:55:15;10.47;;;8.20;;
5147;SDS011;2592;48.140;7.614;2024-01-27T05:57:42;11.30;;;7.17;;
5147;SDS011;2592;48.140;7.614;2024-01-27T06:00:09;10.63;;;6.90;;
5147;SDS011;2592;48.140;7.614;2024-01-27T06:02:35;9.83;;;6.30;;
5147;SDS011;2592;48.140;7.614;2024-01-27T06:05:02;7.80;;;5.20;;
5147;SDS011;2592;48.140;7.614;2024-01-27T06:07:30;8.70;;;5.40;;
5147;SDS011;2592;48.140;7.614;2024-01-27T06:09:56;14.13;;;8.03;;
5147;SDS011;2592;48.140;7.614;2024-01-27T06:12:23;29.30;;;21.40;;
5147;SDS011;2592;48.140;7.614;2024-01-27T06:14:50;20.10;;;10.37;;
5147;SDS011;2592;48.140;7.614;2024-01-27T06:17:16;12.03;;;7.87;;
5147;SDS011;2592;48.140;7.614;2024-01-27T06:19:43;13.70;;;9.33;;
5147;SDS011;2592;48.140;7.614;2024-01-27T06:22:10;17.33;;;9.43;;
5147;SDS011;2592;48.140;7.614;2024-01-27T06:24:42;13.23;;;7.80;;
5147;SDS011;2592;48.140;7.614;2024-01-27T06:27:09;8.83;;;6.67;;
5147;SDS011;2592;48.140;7.614;2024-01-27T06:29:36;11.60;;;6.80;;
5147;SDS011;2592;48.140;7.614;2024-01-27T06:32:02;10.87;;;7.80;;
5147;SDS011;2592;48.140;7.614;2024-01-27T06:34:29;10.27;;;8.07;;
5147;SDS011;2592;48.140;7.614;2024-01-27T06:36:55;8.47;;;5.57;;
5147;SDS011;2592;48.140;7.614;2024-01-27T06:39:22;16.83;;;10.00;;
5147;SDS011;2592;48.140;7.614;2024-01-27T06:41:49;17.80;;;9.90;;
5147;SDS011;2592;48.140;7.614;2024-01-27T06:44:16;24.47;;;16.10;;
5147;SDS011;2592;48.140;7.614;2024-01-27T06:46:42;23.43;;;14.93;;
5147;SDS011;2592;48.140;7.614;2024-01-27T06:49:10;25.00;;;14.90;;
5147;SDS011;2592;48.140;7.614;2024-01-27T06:51:38;30.87;;;15.30;;
5147;SDS011;2592;48.140;7.614;2024-01-27T06:54:04;32.27;;;20.97;;
5147;SDS011;2592;48.140;7.614;2024-01-27T06:56:31;34.80;;;18.10;;
5147;SDS011;2592;48.140;7.614;2024-01-27T06:58:58;16.87;;;9.90;;
5147;SDS011;2592;48.140;7.614;2024-01-27T07:01:25;20.93;;;11.70;;
5147;SDS011;2592;48.140;7.614;2024-01-27T07:03:51;25.23;;;15.90;;
5147;SDS011;2592;48.140;7.614;2024-01-27T07:06:18;20.40;;;13.63;;
5147;SDS011;2592;48.140;7.614;2024-01-27T07:08:44;18.83;;;11.83;;
5147;SDS011;2592;48.140;7.614;2024-01-27T07:11:11;13.67;;;9.07;;
5147;SDS011;2592;48.140;7.614;2024-01-27T07:13:37;17.10;;;10.60;;
5147;SDS011;2592;48.140;7.614;2024-01-27T07:16:06;11.43;;;7.70;;
5147;SDS011;2592;48.140;7.614;2024-01-27T07:18:32;15.97;;;10.00;;
5147;SDS011;2592;48.140;7.614;2024-01-27T07:21:00;44.97;;;30.70;;
5147;SDS011;2592;48.140;7.614;2024-01-27T07:23:27;52.07;;;35.03;;
5147;SDS011;2592;48.140;7.614;2024-01-27T07:25:53;43.63;;;27.17;;
5147;SDS011;2592;48.140;7.614;2024-01-27T07:28:20;19.23;;;11.53;;
5147;SDS011;2592;48.140;7.614;2024-01-27T07:30:46;35.07;;;22.70;;
5147;SDS011;2592;48.140;7.614;2024-01-27T07:33:14;35.93;;;24.00;;
5147;SDS011;2592;48.140;7.614;2024-01-27T07:35:40;36.13;;;21.73;;
5147;SDS011;2592;48.140;7.614;2024-01-27T07:38:07;33.50;;;19.40;;
5147;SDS011;2592;48.140;7.614;2024-01-27T07:40:34;36.10;;;22.87;;
5147;SDS011;2592;48.140;7.614;2024-01-27T07:43:00;29.20;;;20.37;;
5147;SDS011;2592;48.140;7.614;2024-01-27T07:45:27;25.90;;;15.87;;
5147;SDS011;2592;48.140;7.614;2024-01-27T07:47:54;29.20;;;20.17;;
5147;SDS011;2592;48.140;7.614;2024-01-27T07:50:22;28.43;;;19.70;;
5147;SDS011;2592;48.140;7.614;2024-01-27T07:52:49;30.80;;;18.60;;
5147;SDS011;2592;48.140;7.614;2024-01-27T07:55:15;27.57;;;17.90;;
5147;SDS011;2592;48.140;7.614;2024-01-27T07:57:42;25.37;;;20.13;;
5147;SDS011;2592;48.140;7.614;2024-01-27T08:00:09;19.40;;;14.00;;
5147;SDS011;2592;48.140;7.614;2024-01-27T08:02:35;25.33;;;19.37;;
5147;SDS011;2592;48.140;7.614;2024-01-27T08:05:02;16.10;;;11.90;;
5147;SDS011;2592;48.140;7.614;2024-01-27T08:07:30;15.90;;;13.30;;
5147;SDS011;2592;48.140;7.614;2024-01-27T08:09:58;16.47;;;12.67;;
5147;SDS011;2592;48.140;7.614;2024-01-27T08:12:24;26.47;;;17.80;;
5147;SDS011;2592;48.140;7.614;2024-01-27T08:14:51;33.90;;;23.77;;
5147;SDS011;2592;48.140;7.614;2024-01-27T08:17:19;24.40;;;18.90;;
5147;SDS011;2592;48.140;7.614;2024-01-27T08:19:45;24.70;;;16.83;;
5147;SDS011;2592;48.140;7.614;2024-01-27T08:22:11;25.63;;;21.90;;
5147;SDS011;2592;48.140;7.614;2024-01-27T08:24:39;23.93;;;19.07;;
5147;SDS011;2592;48.140;7.614;2024-01-27T08:27:06;22.03;;;17.10;;
5147;SDS011;2592;48.140;7.614;2024-01-27T08:29:32;21.00;;;15.90;;
5147;SDS011;2592;48.140;7.614;2024-01-27T08:31:59;15.37;;;12.63;;
5147;SDS011;2592;48.140;7.614;2024-01-27T08:34:25;21.27;;;12.83;;
5147;SDS011;2592;48.140;7.614;2024-01-27T08:36:52;21.77;;;18.03;;
5147;SDS011;2592;48.140;7.614;2024-01-27T08:39:18;30.30;;;20.33;;
5147;SDS011;2592;48.140;7.614;2024-01-27T08:41:46;19.30;;;15.40;;
5147;SDS011;2592;48.140;7.614;2024-01-27T08:44:13;20.50;;;15.13;;
5147;SDS011;2592;48.140;7.614;2024-01-27T08:46:39;24.33;;;18.13;;
5147;SDS011;2592;48.140;7.614;2024-01-27T08:49:06;27.53;;;19.30;;
5147;SDS011;2592;48.140;7.614;2024-01-27T08:51:32;26.53;;;19.03;;
5147;SDS011;2592;48.140;7.614;2024-01-27T08:53:59;25.03;;;18.67;;
5147;SDS011;2592;48.140;7.614;2024-01-27T08:56:26;24.53;;;18.40;;
5147;SDS011;2592;48.140;7.614;2024-01-27T08:58:53;32.60;;;20.80;;
5147;SDS011;2592;48.140;7.614;2024-01-27T09:01:20;30.67;;;21.83;;
5147;SDS011;2592;48.140;7.614;2024-01-27T09:03:46;32.27;;;21.03;;
5147;SDS011;2592;48.140;7.614;2024-01-27T09:06:13;32.37;;;20.53;;
5147;SDS011;2592;48.140;7.614;2024-01-27T09:08:39;39.80;;;23.17;;
5147;SDS011;2592;48.140;7.614;2024-01-27T09:11:06;36.80;;;21.50;;
5147;SDS011;2592;48.140;7.614;2024-01-27T09:13:34;31.60;;;19.90;;
5147;SDS011;2592;48.140;7.614;2024-01-27T09:16:02;24.33;;;15.30;;
5147;SDS011;2592;48.140;7.614;2024-01-27T09:18:28;26.53;;;15.90;;
5147;SDS011;2592;48.140;7.614;2024-01-27T09:20:55;35.80;;;21.10;;
5147;SDS011;2592;48.140;7.614;2024-01-27T09:23:21;31.50;;;15.23;;
5147;SDS011;2592;48.140;7.614;2024-01-27T09:25:48;13.87;;;8.80;;
5147;SDS011;2592;48.140;7.614;2024-01-27T09:28:15;15.23;;;7.00;;
5147;SDS011;2592;48.140;7.614;2024-01-27T09:30:41;15.33;;;7.00;;
5147;SDS011;2592;48.140;7.614;2024-01-27T09:33:09;8.53;;;5.53;;
5147;SDS011;2592;48.140;7.614;2024-01-27T09:35:35;10.33;;;7.17;;
5147;SDS011;2592;48.140;7.614;2024-01-27T09:38:02;12.53;;;7.53;;
5147;SDS011;2592;48.140;7.614;2024-01-27T09:40:28;11.70;;;5.73;;
5147;SDS011;2592;48.140;7.614;2024-01-27T09:42:56;8.23;;;5.20;;
5147;SDS011;2592;48.140;7.614;2024-01-27T09:45:25;12.30;;;5.00;;
5147;SDS011;2592;48.140;7.614;2024-01-27T09:47:51;10.93;;;4.20;;
5147;SDS011;2592;48.140;7.614;2024-01-27T09:50:19;12.53;;;5.50;;
5147;SDS011;2592;48.140;7.614;2024-01-27T09:52:47;12.83;;;5.27;;
5147;SDS011;2592;48.140;7.614;2024-01-27T09:55:14;13.63;;;5.17;;
5147;SDS011;2592;48.140;7.614;2024-01-27T09:57:39;15.60;;;6.97;;
5147;SDS011;2592;48.140;7.614;2024-01-27T10:00:06;10.40;;;5.30;;
5147;SDS011;2592;48.140;7.614;2024-01-27T10:02:36;15.60;;;4.90;;
5147;SDS011;2592;48.140;7.614;2024-01-27T10:05:05;8.43;;;4.73;;
5147;SDS011;2592;48.140;7.614;2024-01-27T10:07:33;11.47;;;6.10;;
5147;SDS011;2592;48.140;7.614;2024-01-27T10:10:00;8.93;;;6.63;;
5147;SDS011;2592;48.140;7.614;2024-01-27T10:12:26;14.53;;;7.07;;
5147;SDS011;2592;48.140;7.614;2024-01-27T10:14:54;11.37;;;5.73;;
5147;SDS011;2592;48.140;7.614;2024-01-27T10:17:21;11.17;;;6.70;;
5147;SDS011;2592;48.140;7.614;2024-01-27T10:19:58;12.77;;;6.23;;
5147;SDS011;2592;48.140;7.614;2024-01-27T10:22:26;12.57;;;6.30;;
5147;SDS011;2592;48.140;7.614;2024-01-27T10:24:53;7.63;;;5.83;;
5147;SDS011;2592;48.140;7.614;2024-01-27T10:27:20;13.93;;;7.00;;
5147;SDS011;2592;48.140;7.614;2024-01-27T10:29:51;11.70;;;6.47;;
5147;SDS011;2592;48.140;7.614;2024-01-27T10:32:17;10.87;;;6.77;;
5147;SDS011;2592;48.140;7.614;2024-01-27T10:34:44;10.87;;;6.03;;
5147;SDS011;2592;48.140;7.614;2024-01-27T10:37:11;13.13;;;6.30;;
5147;SDS011;2592;48.140;7.614;2024-01-27T10:39:38;13.00;;;6.00;;
5147;SDS011;2592;48.140;7.614;2024-01-27T10:42:06;16.33;;;7.67;;
5147;SDS011;2592;48.140;7.614;2024-01-27T10:44:33;17.07;;;7.50;;
5147;SDS011;2592;48.140;7.614;2024-01-27T10:47:03;11.83;;;5.67;;
5147;SDS011;2592;48.140;7.614;2024-01-27T10:49:31;8.33;;;5.07;;
5147;SDS011;2592;48.140;7.614;2024-01-27T10:52:00;9.60;;;4.90;;
5147;SDS011;2592;48.140;7.614;2024-01-27T10:54:29;11.10;;;5.97;;
5147;SDS011;2592;48.140;7.614;2024-01-27T10:56:57;15.63;;;6.20;;
5147;SDS011;2592;48.140;7.614;2024-01-27T10:59:27;11.40;;;5.93;;
5147;SDS011;2592;48.140;7.614;2024-01-27T11:01:53;9.00;;;4.60;;
5147;SDS011;2592;48.140;7.614;2024-01-27T11:04:20;10.67;;;6.87;;
5147;SDS011;2592;48.140;7.614;2024-01-27T11:06:47;11.50;;;6.33;;
5147;SDS011;2592;48.140;7.614;2024-01-27T11:09:13;12.73;;;7.30;;
5147;SDS011;2592;48.140;7.614;2024-01-27T11:11:40;13.27;;;6.50;;
5147;SDS011;2592;48.140;7.614;2024-01-27T11:14:08;12.80;;;6.97;;
5147;SDS011;2592;48.140;7.614;2024-01-27T11:16:36;13.87;;;6.53;;
5147;SDS011;2592;48.140;7.614;2024-01-27T11:19:08;10.67;;;6.60;;
5147;SDS011;2592;48.140;7.614;2024-01-27T11:21:35;23.67;;;7.17;;
5147;SDS011;2592;48.140;7.614;2024-01-27T11:24:11;8.53;;;5.80;;
5147;SDS011;2592;48.140;7.614;2024-01-27T11:26:38;9.50;;;5.70;;
5147;SDS011;2592;48.140;7.614;2024-01-27T11:29:05;8.83;;;5.20;;
5147;SDS011;2592;48.140;7.614;2024-01-27T11:31:32;14.43;;;6.47;;
5147;SDS011;2592;48.140;7.614;2024-01-27T11:34:00;12.50;;;5.80;;
5147;SDS011;2592;48.140;7.614;2024-01-27T11:36:26;10.50;;;5.50;;
5147;SDS011;2592;48.140;7.614;2024-01-27T11:38:53;10.50;;;6.20;;
5147;SDS011;2592;48.140;7.614;2024-01-27T11:41:24;11.60;;;7.03;;
5147;SDS011;2592;48.140;7.614;2024-01-27T11:43:51;8.63;;;5.67;;
5147;SDS011;2592;48.140;7.614;2024-01-27T11:46:18;10.07;;;5.23;;
5147;SDS011;2592;48.140;7.614;2024-01-27T11:48:44;7.83;;;4.83;;
5147;SDS011;2592;48.140;7.614;2024-01-27T11:51:12;13.77;;;6.27;;
5147;SDS011;2592;48.140;7.614;2024-01-27T11:53:38;8.53;;;4.90;;
5147;SDS011;2592;48.140;7.614;2024-01-27T11:56:05;15.07;;;5.10;;
5147;SDS011;2592;48.140;7.614;2024-01-27T11:58:32;15.50;;;5.40;;
5147;SDS011;2592;48.140;7.614;2024-01-27T12:00:58;8.77;;;4.37;;
5147;SDS011;2592;48.140;7.614;2024-01-27T12:03:25;12.70;;;4.73;;
5147;SDS011;2592;48.140;7.614;2024-01-27T12:05:54;10.80;;;3.50;;
5147;SDS011;2592;48.140;7.614;2024-01-27T12:08:22;12.03;;;3.30;;
5147;SDS011;2592;48.140;7.614;2024-01-27T12:10:48;14.30;;;3.73;;
5147;SDS011;2592;48.140;7.614;2024-01-27T12:13:15;7.83;;;3.33;;
5147;SDS011;2592;48.140;7.614;2024-01-27T12:15:42;10.83;;;3.53;;
5147;SDS011;2592;48.140;7.614;2024-01-27T12:18:09;12.43;;;4.07;;
5147;SDS011;2592;48.140;7.614;2024-01-27T12:20:35;14.27;;;5.00;;
5147;SDS011;2592;48.140;7.614;2024-01-27T12:23:02;15.50;;;5.47;;
5147;SDS011;2592;48.140;7.614;2024-01-27T12:25:29;7.60;;;4.00;;
5147;SDS011;2592;48.140;7.614;2024-01-27T12:27:55;11.50;;;5.20;;
5147;SDS011;2592;48.140;7.614;2024-01-27T12:30:26;10.77;;;4.90;;
5147;SDS011;2592;48.140;7.614;2024-01-27T12:32:52;6.90;;;4.10;;
5147;SDS011;2592;48.140;7.614;2024-01-27T12:35:19;10.37;;;3.57;;
5147;SDS011;2592;48.140;7.614;2024-01-27T12:37:45;13.67;;;3.90;;
5147;SDS011;2592;48.140;7.614;2024-01-27T12:40:19;7.33;;;4.10;;
5147;SDS011;2592;48.140;7.614;2024-01-27T12:42:47;10.47;;;3.40;;
5147;SDS011;2592;48.140;7.614;2024-01-27T12:45:14;7.80;;;3.13;;
5147;SDS011;2592;48.140;7.614;2024-01-27T12:47:40;17.43;;;3.50;;
5147;SDS011;2592;48.140;7.614;2024-01-27T12:50:07;12.47;;;3.57;;
5147;SDS011;2592;48.140;7.614;2024-01-27T12:52:34;7.97;;;3.03;;
5147;SDS011;2592;48.140;7.614;2024-01-27T12:55:00;9.40;;;4.03;;
5147;SDS011;2592;48.140;7.614;2024-01-27T12:57:27;7.77;;;3.83;;
5147;SDS011;2592;48.140;7.614;2024-01-27T12:59:55;8.43;;;3.93;;
5147;SDS011;2592;48.140;7.614;2024-01-27T13:02:22;8.00;;;3.63;;
5147;SDS011;2592;48.140;7.614;2024-01-27T13:04:48;15.00;;;4.50;;
5147;SDS011;2592;48.140;7.614;2024-01-27T13:07:15;13.67;;;4.60;;
5147;SDS011;2592;48.140;7.614;2024-01-27T13:09:41;7.60;;;4.23;;
5147;SDS011;2592;48.140;7.614;2024-01-27T13:12:07;17.40;;;4.77;;
5147;SDS011;2592;48.140;7.614;2024-01-27T13:14:34;4.10;;;3.40;;
5147;SDS011;2592;48.140;7.614;2024-01-27T13:17:02;14.63;;;4.57;;
5147;SDS011;2592;48.140;7.614;2024-01-27T13:19:29;9.30;;;3.73;;
5147;SDS011;2592;48.140;7.614;2024-01-27T13:21:56;11.47;;;4.47;;
5147;SDS011;2592;48.140;7.614;2024-01-27T13:24:22;7.23;;;3.70;;
5147;SDS011;2592;48.140;7.614;2024-01-27T13:26:49;8.57;;;4.00;;
5147;SDS011;2592;48.140;7.614;2024-01-27T13:29:16;9.70;;;4.10;;
5147;SDS011;2592;48.140;7.614;2024-01-27T13:31:43;7.30;;;3.67;;
5147;SDS011;2592;48.140;7.614;2024-01-27T13:34:11;10.47;;;3.63;;
5147;SDS011;2592;48.140;7.614;2024-01-27T13:36:37;9.40;;;4.10;;
5147;SDS011;2592;48.140;7.614;2024-01-27T13:39:04;8.10;;;4.40;;
5147;SDS011;2592;48.140;7.614;2024-01-27T13:41:30;13.30;;;3.60;;
5147;SDS011;2592;48.140;7.614;2024-01-27T13:43:56;7.57;;;3.60;;
5147;SDS011;2592;48.140;7.614;2024-01-27T13:46:23;13.17;;;3.63;;
5147;SDS011;2592;48.140;7.614;2024-01-27T13:48:49;4.37;;;2.60;;
5147;SDS011;2592;48.140;7.614;2024-01-27T13:51:17;7.80;;;3.90;;
5147;SDS011;2592;48.140;7.614;2024-01-27T13:53:44;11.23;;;4.00;;
5147;SDS011;2592;48.140;7.614;2024-01-27T13:56:10;6.73;;;3.00;;
5147;SDS011;2592;48.140;7.614;2024-01-27T13:58:37;12.60;;;3.73;;
5147;SDS011;2592;48.140;7.614;2024-01-27T14:01:03;7.07;;;3.57;;
5147;SDS011;2592;48.140;7.614;2024-01-27T14:03:30;5.80;;;3.30;;
5147;SDS011;2592;48.140;7.614;2024-01-27T14:05:56;8.13;;;3.53;;
5147;SDS011;2592;48.140;7.614;2024-01-27T14:08:24;8.23;;;3.30;;
5147;SDS011;2592;48.140;7.614;2024-01-27T14:10:50;9.57;;;3.70;;
5147;SDS011;2592;48.140;7.614;2024-01-27T14:13:18;5.83;;;3.40;;
5147;SDS011;2592;48.140;7.614;2024-01-27T14:15:44;9.03;;;3.23;;
5147;SDS011;2592;48.140;7.614;2024-01-27T14:18:11;6.70;;;3.23;;
5147;SDS011;2592;48.140;7.614;2024-01-27T14:20:45;5.40;;;3.13;;
5147;SDS011;2592;48.140;7.614;2024-01-27T14:23:12;8.47;;;3.17;;
5147;SDS011;2592;48.140;7.614;2024-01-27T14:25:39;7.10;;;3.60;;
5147;SDS011;2592;48.140;7.614;2024-01-27T14:28:05;8.13;;;3.77;;
5147;SDS011;2592;48.140;7.614;2024-01-27T14:30:34;7.13;;;2.70;;
5147;SDS011;2592;48.140;7.614;2024-01-27T14:33:01;5.77;;;3.30;;
5147;SDS011;2592;48.140;7.614;2024-01-27T14:35:28;10.67;;;3.40;;
5147;SDS011;2592;48.140;7.614;2024-01-27T14:37:54;7.57;;;2.90;;
5147;SDS011;2592;48.140;7.614;2024-01-27T14:40:22;7.83;;;3.70;;
5147;SDS011;2592;48.140;7.614;2024-01-27T14:42:52;6.03;;;4.10;;
5147;SDS011;2592;48.140;7.614;2024-01-27T14:45:18;7.20;;;4.20;;
5147;SDS011;2592;48.140;7.614;2024-01-27T14:47:45;13.20;;;4.00;;
5147;SDS011;2592;48.140;7.614;2024-01-27T14:50:11;6.27;;;2.73;;
5147;SDS011;2592;48.140;7.614;2024-01-27T14:52:38;4.60;;;2.90;;
5147;SDS011;2592;48.140;7.614;2024-01-27T14:55:05;9.70;;;3.37;;
5147;SDS011;2592;48.140;7.614;2024-01-27T14:57:33;9.70;;;3.53;;
5147;SDS011;2592;48.140;7.614;2024-01-27T15:00:01;5.90;;;3.13;;
5147;SDS011;2592;48.140;7.614;2024-01-27T15:02:28;6.43;;;3.10;;